createdAt,value
2019-03-29T00:01:28.390Z,5.32
2019-03-29T00:04:17.223Z,5.40
2019-03-29T00:07:06.132Z,5.29
2019-03-29T00:09:48.287Z,5.26
2019-03-29T00:12:37.122Z,5.25
2019-03-29T00:15:25.952Z,5.18
2019-03-29T00:18:14.816Z,5.07
2019-03-29T00:21:03.644Z,5.02
2019-03-29T00:24:05.961Z,4.96
2019-03-29T00:26:43.080Z,4.89
2019-03-29T00:29:31.908Z,4.85
2019-03-29T00:32:20.755Z,4.78
2019-03-29T00:35:09.650Z,4.73
2019-03-29T00:37:58.502Z,4.67
2019-03-29T00:40:47.330Z,4.58
2019-03-29T00:43:36.178Z,4.57
2019-03-29T00:46:25.086Z,4.55
2019-03-29T00:49:14.306Z,4.48
2019-03-29T00:52:04.538Z,4.42
2019-03-29T00:54:54.135Z,4.37
2019-03-29T00:57:43.939Z,4.35
2019-03-29T01:00:33.649Z,4.42
2019-03-29T01:03:23.422Z,4.44
2019-03-29T01:06:12.908Z,4.56
2019-03-29T01:08:55.953Z,4.55
2019-03-29T01:11:44.797Z,4.42
2019-03-29T01:14:33.632Z,4.38
2019-03-29T01:17:22.451Z,4.30
2019-03-29T01:23:05.481Z,4.26
2019-03-29T01:25:54.345Z,4.24
2019-03-29T01:28:43.165Z,4.22
2019-03-29T01:31:32.041Z,4.31
2019-03-29T01:34:20.869Z,4.48
2019-03-29T01:37:09.727Z,4.57
2019-03-29T01:39:58.559Z,4.56
2019-03-29T01:43:06.651Z,4.58
2019-03-29T01:45:55.672Z,4.63
2019-03-29T01:48:44.500Z,4.57
2019-03-29T01:51:33.381Z,4.48
2019-03-29T01:54:41.328Z,4.38
2019-03-29T01:57:30.277Z,4.43
2019-03-29T02:00:40.020Z,4.32
2019-03-29T02:06:36.783Z,4.28
2019-03-29T02:09:18.951Z,4.29
2019-03-29T02:12:07.797Z,4.27
2019-03-29T02:14:56.707Z,4.23
2019-03-29T02:17:45.535Z,4.25
2019-03-29T02:20:34.374Z,4.36
2019-03-29T02:23:23.216Z,4.53
2019-03-29T02:26:12.086Z,4.58
2019-03-29T02:29:00.906Z,4.61
2019-03-29T02:31:49.827Z,4.66
2019-03-29T02:34:38.665Z,4.67
2019-03-29T02:37:29.449Z,4.84
2019-03-29T02:43:25.832Z,5.07
2019-03-29T02:46:14.680Z,5.18
2019-03-29T02:49:03.506Z,5.23
2019-03-29T02:51:52.357Z,5.35
2019-03-29T02:54:41.186Z,5.26
2019-03-29T02:57:30.035Z,5.15
2019-03-29T03:00:19.024Z,5.24
2019-03-29T03:03:07.867Z,5.16
2019-03-29T03:05:56.742Z,5.01
2019-03-29T03:08:45.563Z,4.94
2019-03-29T03:11:27.563Z,4.82
2019-03-29T03:14:16.410Z,4.80
2019-03-29T03:17:05.250Z,4.77
2019-03-29T03:19:54.106Z,4.78
2019-03-29T03:22:43.151Z,4.83
2019-03-29T03:25:31.986Z,4.97
2019-03-29T03:28:20.857Z,4.90
2019-03-29T03:31:09.704Z,4.85
2019-03-29T03:33:58.555Z,4.63
2019-03-29T03:36:47.419Z,4.63
2019-03-29T03:39:36.252Z,4.48
2019-03-29T03:42:25.295Z,4.44
2019-03-29T03:45:14.173Z,4.50
2019-03-29T03:48:03.017Z,4.54
2019-03-29T03:51:10.933Z,4.49
2019-03-29T03:53:59.810Z,4.43
2019-03-29T03:57:09.509Z,4.42
2019-03-29T03:59:58.524Z,4.46
2019-03-29T04:02:47.432Z,4.45
2019-03-29T04:05:36.287Z,4.29
2019-03-29T04:11:46.965Z,4.19
2019-03-29T04:14:35.794Z,4.07
2019-03-29T04:17:24.632Z,3.92
2019-03-29T04:20:13.517Z,3.84
2019-03-29T04:23:02.370Z,3.77
2019-03-29T04:29:04.623Z,3.67
2019-03-29T04:31:49.614Z,3.61
2019-03-29T04:34:38.458Z,3.56
2019-03-29T04:37:27.311Z,3.50
2019-03-29T04:40:16.131Z,3.41
2019-03-29T04:43:04.994Z,3.37
2019-03-29T04:45:53.812Z,3.39
2019-03-29T04:48:42.664Z,3.34
2019-03-29T04:51:31.499Z,3.33
2019-03-29T04:54:20.327Z,3.31
2019-03-29T04:57:09.157Z,3.21
2019-03-29T04:59:57.982Z,3.25
2019-03-29T05:02:46.872Z,3.23
2019-03-29T05:05:35.758Z,3.24
2019-03-29T05:08:24.607Z,3.23
2019-03-29T05:11:04.565Z,3.26
2019-03-29T05:13:53.420Z,3.29
2019-03-29T05:16:42.301Z,3.38
2019-03-29T05:19:31.198Z,3.45
2019-03-29T05:22:19.991Z,3.42
2019-03-29T05:25:09.078Z,3.49
2019-03-29T05:27:57.915Z,3.57
2019-03-29T05:30:46.755Z,3.75
2019-03-29T05:36:43.360Z,4.02
2019-03-29T05:39:32.182Z,4.16
2019-03-29T05:42:21.046Z,4.24
2019-03-29T05:45:10.308Z,4.31
2019-03-29T05:47:59.148Z,4.42
2019-03-29T05:50:47.966Z,4.42
2019-03-29T05:53:36.818Z,4.52
2019-03-29T05:56:25.653Z,4.60
2019-03-29T05:59:14.495Z,4.75
2019-03-29T06:02:03.407Z,4.83
2019-03-29T06:04:52.255Z,5.00
2019-03-29T06:07:41.091Z,5.43
2019-03-29T06:10:29.936Z,6.15
2019-03-29T06:13:18.778Z,6.56
2019-03-29T06:16:38.327Z,7.17
2019-03-29T06:19:17.257Z,7.56
2019-03-29T06:22:06.111Z,7.84
2019-03-29T06:24:54.969Z,7.61
2019-03-29T06:27:43.805Z,7.44
2019-03-29T06:30:32.791Z,7.52
2019-03-29T06:33:40.713Z,7.90
2019-03-29T06:42:59.606Z,7.73
2019-03-29T06:45:48.564Z,7.73
2019-03-29T06:48:37.387Z,7.76
2019-03-29T06:51:26.212Z,7.70
2019-03-29T06:54:15.077Z,7.82
2019-03-29T06:57:03.931Z,8.00
2019-03-29T06:59:52.746Z,8.31
2019-03-29T07:02:41.626Z,9.50
2019-03-29T07:05:30.459Z,10.04
2019-03-29T07:08:19.317Z,10.10
2019-03-29T07:11:00.721Z,10.15
2019-03-29T07:13:57.352Z,11.44
2019-03-29T07:16:40.113Z,11.90
2019-03-29T07:19:28.984Z,12.60
2019-03-29T07:22:17.827Z,13.19
2019-03-29T07:28:20.860Z,14.14
2019-03-29T07:31:09.715Z,13.94
2019-03-29T07:33:58.543Z,14.01
2019-03-29T07:36:47.543Z,13.52
2019-03-29T07:39:36.396Z,13.76
2019-03-29T07:42:25.277Z,13.65
2019-03-29T07:45:14.173Z,14.61
2019-03-29T07:48:03.035Z,14.86
2019-03-29T07:50:51.883Z,13.86
2019-03-29T07:53:40.718Z,14.53
2019-03-29T07:56:29.569Z,15.17
2019-03-29T07:59:18.460Z,16.40
2019-03-29T08:02:07.464Z,16.69
2019-03-29T08:04:56.323Z,17.71
2019-03-29T08:07:45.219Z,17.21
2019-03-29T08:10:31.014Z,17.77
2019-03-29T08:13:18.102Z,18.86
2019-03-29T08:16:06.964Z,18.37
2019-03-29T08:18:55.787Z,20.45
2019-03-29T08:21:44.655Z,20.04
2019-03-29T08:24:33.638Z,19.75
2019-03-29T08:27:22.585Z,19.63
2019-03-29T08:33:39.794Z,19.69
2019-03-29T08:36:28.681Z,20.14
2019-03-29T08:39:27.952Z,20.57
2019-03-29T08:42:08.078Z,19.95
2019-03-29T08:44:56.918Z,20.58
2019-03-29T08:47:45.881Z,20.69
2019-03-29T08:50:34.719Z,20.17
2019-03-29T08:53:23.565Z,20.93
2019-03-29T08:56:12.492Z,21.58
2019-03-29T08:59:01.316Z,21.14
2019-03-29T09:01:50.220Z,22.15
2019-03-29T09:04:39.065Z,22.43
2019-03-29T09:07:28.192Z,22.02
2019-03-29T09:13:40.224Z,21.62
2019-03-29T09:16:29.126Z,22.22
2019-03-29T09:19:18.046Z,21.84
2019-03-29T09:22:06.866Z,22.86
2019-03-29T09:28:03.583Z,23.65
2019-03-29T09:30:52.422Z,23.41
2019-03-29T09:33:41.252Z,23.19
2019-03-29T09:36:30.161Z,22.18
2019-03-29T09:39:19.166Z,22.63
2019-03-29T09:42:09.765Z,23.27
2019-03-29T09:45:17.664Z,23.70
2019-03-29T09:48:06.520Z,23.89
2019-03-29T09:50:55.344Z,24.19
2019-03-29T09:53:44.211Z,21.45
2019-03-29T09:56:38.981Z,22.13
2019-03-29T09:59:23.610Z,24.38
2019-03-29T10:02:12.468Z,23.56
2019-03-29T10:05:01.303Z,23.66
2019-03-29T10:07:50.134Z,23.82
2019-03-29T10:10:38.999Z,23.63
2019-03-29T10:13:20.393Z,23.72
2019-03-29T10:16:09.239Z,23.58
2019-03-29T10:18:58.179Z,23.67
2019-03-29T10:21:47.064Z,22.92
2019-03-29T10:24:35.902Z,22.85
2019-03-29T10:27:24.730Z,23.41
2019-03-29T10:33:28.626Z,22.71
2019-03-29T10:36:17.465Z,23.51
2019-03-29T10:39:27.176Z,23.67
2019-03-29T10:42:16.028Z,23.94
2019-03-29T10:48:33.167Z,23.70
2019-03-29T10:51:22.086Z,23.80
2019-03-29T10:54:10.916Z,23.37
2019-03-29T10:56:59.740Z,24.10
2019-03-29T10:59:48.607Z,24.35
2019-03-29T11:02:37.477Z,24.56
2019-03-29T11:05:26.312Z,24.32
2019-03-29T11:08:15.183Z,25.19
2019-03-29T11:11:04.062Z,24.26
2019-03-29T11:13:46.322Z,23.31
2019-03-29T11:16:35.174Z,23.15
2019-03-29T11:19:24.033Z,24.66
2019-03-29T11:22:12.905Z,23.40
2019-03-29T11:25:01.737Z,24.16
2019-03-29T11:27:50.580Z,24.85
2019-03-29T11:30:58.507Z,24.51
2019-03-29T11:33:47.394Z,24.72
2019-03-29T11:36:55.315Z,23.37
2019-03-29T11:39:44.165Z,23.05
2019-03-29T11:42:33.011Z,23.87
2019-03-29T11:45:21.887Z,23.61
2019-03-29T11:48:10.777Z,23.38
2019-03-29T11:50:59.629Z,24.10
2019-03-29T11:53:51.052Z,23.99
2019-03-29T11:56:39.128Z,23.29
2019-03-29T11:59:46.976Z,23.92
2019-03-29T12:02:35.880Z,24.46
2019-03-29T12:05:24.738Z,22.76
2019-03-29T12:08:13.695Z,24.08
2019-03-29T12:11:02.534Z,24.86
2019-03-29T12:13:44.010Z,24.52
2019-03-29T12:16:32.851Z,24.44
2019-03-29T12:19:21.698Z,24.75
2019-03-29T12:22:10.513Z,23.40
2019-03-29T12:24:59.405Z,22.87
2019-03-29T12:27:48.233Z,22.60
2019-03-29T12:33:51.991Z,23.57
2019-03-29T12:36:40.859Z,20.85
2019-03-29T12:39:29.745Z,21.16
2019-03-29T12:42:18.616Z,21.34
2019-03-29T12:51:49.143Z,20.75
2019-03-29T12:54:38.078Z,22.09
2019-03-29T12:57:26.947Z,21.87
2019-03-29T13:00:15.944Z,22.64
2019-03-29T13:03:05.011Z,22.31
2019-03-29T13:05:53.886Z,22.53
2019-03-29T13:09:01.880Z,21.15
2019-03-29T13:12:09.805Z,21.22
2019-03-29T13:14:58.668Z,21.19
2019-03-29T13:20:56.902Z,21.68
2019-03-29T13:23:45.805Z,22.55
2019-03-29T13:26:34.654Z,22.59
2019-03-29T13:29:23.483Z,23.33
2019-03-29T13:32:12.335Z,22.88
2019-03-29T13:35:20.266Z,22.57
2019-03-29T13:38:28.296Z,22.41
2019-03-29T13:41:36.291Z,21.94
2019-03-29T13:44:44.556Z,23.24
2019-03-29T13:47:33.395Z,22.84
2019-03-29T13:50:34.160Z,22.14
2019-03-29T13:53:12.812Z,22.15
2019-03-29T13:56:01.694Z,21.89
2019-03-29T13:58:50.519Z,22.65
2019-03-29T14:01:39.355Z,23.05
2019-03-29T14:04:28.192Z,23.13
2019-03-29T14:07:36.141Z,23.38
2019-03-29T14:10:25.012Z,23.10
2019-03-29T14:13:07.043Z,23.00
2019-03-29T14:15:55.963Z,22.57
2019-03-29T14:18:44.861Z,22.75
2019-03-29T14:21:52.781Z,23.13
2019-03-29T14:24:41.759Z,23.08
2019-03-29T14:27:30.670Z,23.19
2019-03-29T14:30:19.575Z,23.23
2019-03-29T14:33:08.413Z,23.41
2019-03-29T14:35:57.284Z,23.20
2019-03-29T14:38:46.124Z,23.28
2019-03-29T14:41:35.015Z,24.08
2019-03-29T14:44:23.873Z,23.24
2019-03-29T14:47:12.698Z,23.00
2019-03-29T14:50:01.515Z,23.70
2019-03-29T14:52:50.387Z,23.91
2019-03-29T14:55:39.279Z,23.60
2019-03-29T14:58:28.151Z,23.72
2019-03-29T15:01:16.970Z,23.33
2019-03-29T15:04:24.940Z,22.37
2019-03-29T15:07:13.834Z,23.29
2019-03-29T15:13:10.462Z,23.92
2019-03-29T15:15:59.302Z,23.83
2019-03-29T15:18:48.145Z,23.83
2019-03-29T15:21:36.994Z,24.62
2019-03-29T15:24:25.837Z,25.32
2019-03-29T15:27:14.691Z,25.59
2019-03-29T15:33:31.834Z,23.29
2019-03-29T15:36:20.657Z,23.37
2019-03-29T15:39:09.503Z,22.71
2019-03-29T15:41:58.327Z,22.33
2019-03-29T15:44:47.291Z,22.68
2019-03-29T15:51:04.526Z,23.00
2019-03-29T15:53:53.109Z,21.91
2019-03-29T15:56:42.272Z,22.78
2019-03-29T15:59:31.087Z,22.63
2019-03-29T16:02:20.011Z,22.87
2019-03-29T16:04:49.545Z,22.98
2019-03-29T16:07:38.795Z,23.02
2019-03-29T16:10:28.041Z,22.75
2019-03-29T16:13:16.894Z,22.57
2019-03-29T16:15:58.275Z,22.61
2019-03-29T16:18:47.226Z,22.11
2019-03-29T16:21:36.056Z,22.18
2019-03-29T16:24:24.966Z,22.31
2019-03-29T16:27:13.871Z,21.30
2019-03-29T16:30:02.782Z,21.05
2019-03-29T16:32:51.697Z,21.48
2019-03-29T16:35:40.524Z,21.21
2019-03-29T16:38:29.527Z,21.63
2019-03-29T16:41:18.380Z,21.66
2019-03-29T16:44:07.280Z,21.46
2019-03-29T16:46:56.174Z,22.25
2019-03-29T16:49:45.100Z,21.77
2019-03-29T16:52:33.997Z,21.47
2019-03-29T16:55:41.881Z,21.18
2019-03-29T16:58:30.750Z,20.72
2019-03-29T17:01:19.559Z,20.23
2019-03-29T17:04:08.438Z,19.90
2019-03-29T17:06:57.252Z,19.55
2019-03-29T17:09:46.101Z,19.15
2019-03-29T17:12:42.754Z,19.11
2019-03-29T17:15:24.462Z,18.97
2019-03-29T17:18:13.367Z,18.72
2019-03-29T17:21:02.347Z,18.47
2019-03-29T17:23:53.113Z,18.50
2019-03-29T17:26:43.332Z,18.53
2019-03-29T17:29:32.214Z,18.40
2019-03-29T17:32:21.690Z,18.29
2019-03-29T17:35:11.691Z,18.09
2019-03-29T17:38:00.549Z,17.95
2019-03-29T17:40:49.451Z,17.96
2019-03-29T17:43:38.305Z,17.97
2019-03-29T17:46:26.923Z,17.57
2019-03-29T17:49:15.791Z,17.42
2019-03-29T17:52:04.622Z,17.51
2019-03-29T17:54:53.495Z,17.49
2019-03-29T17:57:42.370Z,17.28
2019-03-29T18:00:31.345Z,17.28
2019-03-29T18:03:20.226Z,17.22
2019-03-29T18:06:09.063Z,16.88
2019-03-29T18:08:57.912Z,16.93
2019-03-29T18:11:46.775Z,16.69
2019-03-29T18:14:28.561Z,16.80
2019-03-29T18:17:17.395Z,16.54
2019-03-29T18:20:27.135Z,16.31
2019-03-29T18:23:15.992Z,16.18
2019-03-29T18:26:04.882Z,16.00
2019-03-29T18:28:37.772Z,15.83
2019-03-29T18:31:25.069Z,15.86
2019-03-29T18:34:13.932Z,15.68
2019-03-29T18:37:02.930Z,15.56
2019-03-29T18:39:54.837Z,15.35
2019-03-29T18:42:42.430Z,15.32
2019-03-29T18:45:31.353Z,15.20
2019-03-29T18:48:20.225Z,15.28
2019-03-29T18:51:09.040Z,15.17
2019-03-29T18:53:57.909Z,15.16
2019-03-29T18:56:47.004Z,15.31
2019-03-29T18:59:37.338Z,15.23
2019-03-29T19:05:34.179Z,15.10
2019-03-29T19:08:23.041Z,15.01
2019-03-29T19:11:30.990Z,14.95
2019-03-29T19:14:19.957Z,14.96
2019-03-29T19:17:08.826Z,14.92
2019-03-29T19:19:57.645Z,14.84
2019-03-29T19:22:46.639Z,14.82
2019-03-29T19:25:35.491Z,14.63
2019-03-29T19:28:24.436Z,14.69
2019-03-29T19:31:13.282Z,14.60
2019-03-29T19:34:02.112Z,14.73
2019-03-29T19:36:50.967Z,14.73
2019-03-29T19:39:39.798Z,14.63
2019-03-29T19:42:28.663Z,14.54
2019-03-29T19:48:45.985Z,14.44
2019-03-29T19:51:53.948Z,14.25
2019-03-29T19:54:43.149Z,14.36
2019-03-29T19:57:32.044Z,14.41
2019-03-29T20:00:41.766Z,14.36
2019-03-29T20:03:30.682Z,14.17
2019-03-29T20:06:19.561Z,14.22
2019-03-29T20:12:25.231Z,14.03
2019-03-29T20:15:07.583Z,14.14
2019-03-29T20:18:15.522Z,13.95
2019-03-29T20:21:04.351Z,13.91
2019-03-29T20:23:53.216Z,13.89
2019-03-29T20:27:01.101Z,13.84
2019-03-29T20:29:49.956Z,13.81
2019-03-29T20:32:38.781Z,13.58
2019-03-29T20:35:27.710Z,13.49
2019-03-29T20:38:16.673Z,13.27
2019-03-29T20:41:05.515Z,13.14
2019-03-29T20:43:54.350Z,13.09
2019-03-29T20:46:43.227Z,13.13
2019-03-29T20:49:32.050Z,13.14
2019-03-29T20:52:20.916Z,13.02
2019-03-29T20:55:09.806Z,12.86
2019-03-29T20:57:58.742Z,12.73
2019-03-29T21:00:47.593Z,12.75
2019-03-29T21:03:36.450Z,12.67
2019-03-29T21:06:25.300Z,12.55
2019-03-29T21:09:14.160Z,12.41
2019-03-29T21:12:03.033Z,12.32
2019-03-29T21:14:44.452Z,12.30
2019-03-29T21:17:33.320Z,12.08
2019-03-29T21:20:41.307Z,11.92
2019-03-29T21:23:30.138Z,11.77
2019-03-29T21:26:19.018Z,11.50
2019-03-29T21:29:26.971Z,11.30
2019-03-29T21:32:15.822Z,11.07
2019-03-29T21:38:19.999Z,10.78
2019-03-29T21:41:08.931Z,10.66
2019-03-29T21:43:57.785Z,10.44
2019-03-29T21:46:46.694Z,10.20
2019-03-29T21:49:35.533Z,10.06
2019-03-29T21:52:24.369Z,9.94
2019-03-29T21:58:21.061Z,9.77
2019-03-29T22:01:09.936Z,9.80
2019-03-29T22:03:58.832Z,9.97
2019-03-29T22:06:47.683Z,9.81
2019-03-29T22:12:30.562Z,9.57
2019-03-29T22:15:19.480Z,9.53
2019-03-29T22:18:01.682Z,9.53
2019-03-29T22:20:50.527Z,9.59
2019-03-29T22:23:39.432Z,9.39
2019-03-29T22:26:28.313Z,9.24
2019-03-29T22:29:17.184Z,9.14
2019-03-29T22:32:06.009Z,8.97
2019-03-29T22:34:54.863Z,8.90
2019-03-29T22:37:43.713Z,8.82
2019-03-29T22:40:32.532Z,8.81
2019-03-29T22:43:21.408Z,8.73
2019-03-29T22:46:10.246Z,8.69
2019-03-29T22:48:59.084Z,8.63
2019-03-29T22:51:47.908Z,8.60
2019-03-29T22:54:36.757Z,8.52
2019-03-29T22:57:25.559Z,8.46
2019-03-29T23:03:30.842Z,8.23
2019-03-29T23:06:19.748Z,8.20
2019-03-29T23:09:11.655Z,8.17
2019-03-29T23:11:59.300Z,8.08
2019-03-29T23:14:48.151Z,8.00
2019-03-29T23:17:29.771Z,7.92
2019-03-29T23:20:18.649Z,7.88
2019-03-29T23:23:07.473Z,7.86
2019-03-29T23:25:56.315Z,7.82
2019-03-29T23:28:45.138Z,7.71
2019-03-29T23:31:33.982Z,7.80
2019-03-29T23:34:22.811Z,7.71
2019-03-29T23:37:11.641Z,7.72
2019-03-29T23:40:19.531Z,7.66
2019-03-29T23:43:08.367Z,7.64
2019-03-29T23:45:57.219Z,7.82
2019-03-29T23:48:46.046Z,7.61
2019-03-29T23:51:34.906Z,7.59
2019-03-29T23:54:23.711Z,7.50
2019-03-29T23:57:12.582Z,7.50
